Terminal Aerodrome Forecast
Issued by NWS

Home | Current Version | Previous Version | Text Only | Print | Product List | Glossary On
Versions: 1 2 3 4 5 6 7 8 9 10 11 12 13 14 15 16
000
FTAK31 PAJN 241300 AAA
TAFAJN
TAF AMD
PAJN 241348Z 2414/2512 00000KT P6SM FEW010 BKN035 OVC060
      TEMPO 2414/2416 FEW005 BKN020 OVC040
     FM241600 VRB02KT P6SM SCT035 BKN050
     FM242100 23004KT P6SM SCT050
     FM250400 VRB03KT P6SM SKC=

USA.gov is the U.S. government's official web portal to all federal, state and local government web resources and services.